createdAt,value
2018-07-07T00:00:53.754Z,51.85
2018-07-07T00:01:53.615Z,51.59
2018-07-07T00:02:53.601Z,51.85
2018-07-07T00:03:53.635Z,51.95
2018-07-07T00:04:53.575Z,51.85
2018-07-07T00:05:53.560Z,52.14
2018-07-07T00:06:53.544Z,52.52
2018-07-07T00:07:53.530Z,52.81
2018-07-07T00:08:53.516Z,52.71
2018-07-07T00:09:53.506Z,52.81
2018-07-07T00:10:53.488Z,52.52
2018-07-07T00:11:53.475Z,53.28
2018-07-07T00:12:53.459Z,52.91
2018-07-07T00:13:53.445Z,52.91
2018-07-07T00:14:53.440Z,52.81
2018-07-07T00:15:53.415Z,53.38
2018-07-07T00:16:53.407Z,53.48
2018-07-07T00:17:53.388Z,53.38
2018-07-07T00:18:53.375Z,53.86
2018-07-07T00:19:53.365Z,53.96
2018-07-07T00:20:53.346Z,53.96
2018-07-07T00:21:53.335Z,53.86
2018-07-07T00:22:53.373Z,53.96
2018-07-07T00:23:53.303Z,53.67
2018-07-07T00:24:53.295Z,54.53
2018-07-07T00:25:53.276Z,54.44
2018-07-07T00:26:53.264Z,54.63
2018-07-07T00:27:53.248Z,54.72
2018-07-07T00:28:53.235Z,54.79
2018-07-07T00:29:53.224Z,55.18
2018-07-07T00:30:53.213Z,55.08
2018-07-07T00:31:53.190Z,55.46
2018-07-07T00:32:53.174Z,55.75
2018-07-07T00:33:53.184Z,55.65
2018-07-07T00:34:53.149Z,56.23
2018-07-07T00:35:53.135Z,55.46
2018-07-07T00:36:53.126Z,55.46
2018-07-07T00:37:53.109Z,56.04
2018-07-07T00:38:53.107Z,55.75
2018-07-07T00:39:53.079Z,56.42
2018-07-07T00:40:53.063Z,56.42
2018-07-07T00:41:53.050Z,56.52
2018-07-07T00:42:53.035Z,57.06
2018-07-07T00:43:53.022Z,57.26
2018-07-07T00:44:53.006Z,57.16
2018-07-07T00:45:52.993Z,56.77
2018-07-07T00:46:52.985Z,56.77
2018-07-07T00:47:52.966Z,56.59
2018-07-07T00:48:52.956Z,56.90
2018-07-07T00:49:52.935Z,56.90
2018-07-07T00:50:52.920Z,57.28
2018-07-07T00:51:52.906Z,56.99
2018-07-07T00:52:52.896Z,56.81
2018-07-07T00:53:52.881Z,56.90
2018-07-07T00:54:52.867Z,57.26
2018-07-07T00:55:52.852Z,57.76
2018-07-07T00:56:52.836Z,57.86
2018-07-07T00:57:52.830Z,57.86
2018-07-07T00:58:52.811Z,58.62
2018-07-07T00:59:52.804Z,58.15
2018-07-07T01:00:52.781Z,58.34
2018-07-07T01:01:52.767Z,58.44
2018-07-07T01:02:52.756Z,58.53
2018-07-07T01:03:52.740Z,58.53
2018-07-07T01:04:52.726Z,58.53
2018-07-07T01:05:52.761Z,57.76
2018-07-07T01:06:52.704Z,57.95
2018-07-07T01:07:52.679Z,57.48
2018-07-07T01:08:52.669Z,58.15
2018-07-07T01:09:52.652Z,57.19
2018-07-07T01:10:52.638Z,57.57
2018-07-07T01:11:52.625Z,57.92
2018-07-07T01:12:52.613Z,58.50
2018-07-07T01:13:52.598Z,58.79
2018-07-07T01:14:52.588Z,58.98
2018-07-07T01:15:52.566Z,59.55
2018-07-07T01:16:52.555Z,59.65
2018-07-07T01:17:52.542Z,60.13
2018-07-07T01:18:52.528Z,59.75
2018-07-07T01:19:52.510Z,60.22
2018-07-07T01:20:52.497Z,60.89
2018-07-07T01:21:52.582Z,60.83
2018-07-07T01:22:52.474Z,60.64
2018-07-07T01:23:52.451Z,60.25
2018-07-07T01:24:52.438Z,60.25
2018-07-07T01:25:52.423Z,60.64
2018-07-07T01:26:52.409Z,60.83
2018-07-07T01:27:52.395Z,60.64
2018-07-07T01:28:52.382Z,60.64
2018-07-07T01:29:52.366Z,60.06
2018-07-07T01:30:52.356Z,59.58
2018-07-07T01:31:52.341Z,60.70
2018-07-07T01:32:52.325Z,60.64
2018-07-07T01:33:52.307Z,61.60
2018-07-07T01:34:52.297Z,61.79
2018-07-07T01:35:52.285Z,61.69
2018-07-07T01:36:52.269Z,61.40
2018-07-07T01:37:52.269Z,60.64
2018-07-07T01:38:52.242Z,60.16
2018-07-07T01:39:52.225Z,60.25
2018-07-07T01:40:52.210Z,60.25
2018-07-07T01:41:52.198Z,61.21
2018-07-07T01:42:52.186Z,61.60
2018-07-07T01:43:52.166Z,60.54
2018-07-07T01:44:52.156Z,61.11
2018-07-07T01:45:52.263Z,61.60
2018-07-07T01:46:52.126Z,62.62
2018-07-07T01:47:52.110Z,62.23
2018-07-07T01:48:52.096Z,62.43
2018-07-07T01:49:52.082Z,63.10
2018-07-07T01:50:52.065Z,63.29
2018-07-07T01:51:52.054Z,63.39
2018-07-07T01:52:52.035Z,63.29
2018-07-07T01:53:52.024Z,63.10
2018-07-07T01:54:52.006Z,62.90
2018-07-07T01:55:52.004Z,63.86
2018-07-07T01:56:51.978Z,63.67
2018-07-07T01:57:51.963Z,62.90
2018-07-07T01:58:51.951Z,63.96
2018-07-07T01:59:51.935Z,63.89
2018-07-07T02:00:51.923Z,64.56
2018-07-07T02:01:51.998Z,64.15
2018-07-07T02:02:51.899Z,64.05
2018-07-07T02:03:51.883Z,64.28
2018-07-07T02:04:51.963Z,64.56
2018-07-07T02:05:51.856Z,64.34
2018-07-07T02:06:51.835Z,64.15
2018-07-07T02:07:51.820Z,64.25
2018-07-07T02:08:51.813Z,64.05
2018-07-07T02:09:51.788Z,64.92
2018-07-07T02:10:51.775Z,65.20
2018-07-07T02:11:51.764Z,64.92
2018-07-07T02:12:51.745Z,64.85
2018-07-07T02:13:51.733Z,65.14
2018-07-07T02:14:51.717Z,65.14
2018-07-07T02:15:51.702Z,64.76
2018-07-07T02:16:51.689Z,64.56
2018-07-07T02:17:51.676Z,64.18
2018-07-07T02:18:51.702Z,63.99
2018-07-07T02:19:51.646Z,64.09
2018-07-07T02:20:51.645Z,64.09
2018-07-07T02:21:51.623Z,64.53
2018-07-07T02:22:51.606Z,64.43
2018-07-07T02:23:51.636Z,65.14
2018-07-07T02:24:51.576Z,64.72
2018-07-07T02:25:51.560Z,65.49
2018-07-07T02:26:51.544Z,65.78
2018-07-07T02:27:51.528Z,65.97
2018-07-07T02:28:51.518Z,65.58
2018-07-07T02:29:51.504Z,65.39
2018-07-07T02:30:51.487Z,65.49
2018-07-07T02:31:51.521Z,66.06
2018-07-07T02:32:51.459Z,66.74
2018-07-07T02:33:51.446Z,67.02
2018-07-07T02:34:51.428Z,67.21
2018-07-07T02:35:51.414Z,66.83
2018-07-07T02:36:51.398Z,67.21
2018-07-07T02:37:51.386Z,66.93
2018-07-07T02:38:51.370Z,67.21
2018-07-07T02:39:51.356Z,67.02
2018-07-07T02:40:51.346Z,67.50
2018-07-07T02:41:51.333Z,67.79
2018-07-07T02:42:51.315Z,67.21
2018-07-07T02:43:51.307Z,67.50
2018-07-07T02:44:51.289Z,67.60
2018-07-07T02:45:51.267Z,66.99
2018-07-07T02:46:51.257Z,67.85
2018-07-07T02:47:51.266Z,68.13
2018-07-07T02:48:51.223Z,68.23
2018-07-07T02:49:51.210Z,68.62
2018-07-07T02:50:51.198Z,68.23
2018-07-07T02:51:51.178Z,68.33
2018-07-07T02:52:51.164Z,68.80
2018-07-07T02:53:51.164Z,69.38
2018-07-07T02:54:51.135Z,69.29
2018-07-07T02:55:51.126Z,69.19
2018-07-07T02:56:51.109Z,68.84
2018-07-07T02:57:51.091Z,68.74
2018-07-07T02:58:51.079Z,69.32
2018-07-07T02:59:51.065Z,68.65
2018-07-07T03:00:51.049Z,68.84
2018-07-07T03:01:51.036Z,68.84
2018-07-07T03:02:51.020Z,68.74
2018-07-07T03:03:51.009Z,68.36
2018-07-07T03:04:50.992Z,68.55
2018-07-07T03:05:50.976Z,68.17
2018-07-07T03:06:51.115Z,68.36
2018-07-07T03:07:50.950Z,68.36
2018-07-07T03:08:50.938Z,68.74
2018-07-07T03:09:50.918Z,68.84
2018-07-07T03:10:50.902Z,68.62
2018-07-07T03:11:50.890Z,69.38
2018-07-07T03:12:50.880Z,69.38
2018-07-07T03:13:50.882Z,69.19
2018-07-07T03:14:50.850Z,69.19
2018-07-07T03:15:50.833Z,69.57
2018-07-07T03:16:50.822Z,69.38
2018-07-07T03:17:50.801Z,69.57
2018-07-07T03:18:50.786Z,69.76
2018-07-07T03:19:50.777Z,70.24
2018-07-07T03:20:50.759Z,70.34
2018-07-07T03:21:50.755Z,70.62
2018-07-07T03:22:50.727Z,70.62
2018-07-07T03:23:50.713Z,71.23
2018-07-07T03:24:50.698Z,70.72
2018-07-07T03:25:50.689Z,70.81
2018-07-07T03:26:50.667Z,70.72
2018-07-07T03:27:50.657Z,69.86
2018-07-07T03:28:50.638Z,70.43
2018-07-07T03:29:50.625Z,70.34
2018-07-07T03:30:50.714Z,70.53
2018-07-07T03:31:50.597Z,70.24
2018-07-07T03:32:50.583Z,70.34
2018-07-07T03:33:50.613Z,70.91
2018-07-07T03:34:50.551Z,71.01
2018-07-07T03:35:50.533Z,71.39
2018-07-07T03:36:50.523Z,71.16
2018-07-07T03:37:50.507Z,71.39
2018-07-07T03:38:50.490Z,71.45
2018-07-07T03:39:50.474Z,72.31
2018-07-07T03:40:50.466Z,72.50
2018-07-07T03:41:50.448Z,73.40
2018-07-07T03:42:50.434Z,73.21
2018-07-07T03:43:50.419Z,72.69
2018-07-07T03:44:50.455Z,72.50
2018-07-07T03:45:50.388Z,72.69
2018-07-07T03:46:50.475Z,72.22
2018-07-07T03:47:50.358Z,72.98
2018-07-07T03:48:50.344Z,72.94
2018-07-07T03:49:50.332Z,73.52
2018-07-07T03:50:50.318Z,73.84
2018-07-07T03:51:50.305Z,74.09
2018-07-07T03:52:50.286Z,73.75
2018-07-07T03:53:50.270Z,73.55
2018-07-07T03:54:50.258Z,73.75
2018-07-07T03:55:50.242Z,73.27
2018-07-07T03:56:50.226Z,73.17
2018-07-07T03:57:50.218Z,73.27
2018-07-07T03:58:50.223Z,73.46
2018-07-07T03:59:50.182Z,73.17
2018-07-07T04:00:50.168Z,73.65
2018-07-07T04:01:50.150Z,73.46
2018-07-07T04:02:50.143Z,72.88
2018-07-07T04:03:50.121Z,73.36
2018-07-07T04:04:50.109Z,73.08
2018-07-07T04:05:50.097Z,73.27
2018-07-07T04:06:50.076Z,73.79
2018-07-07T04:07:50.063Z,74.74
2018-07-07T04:08:50.045Z,75.02
2018-07-07T04:09:50.032Z,74.93
2018-07-07T04:10:50.016Z,75.02
2018-07-07T04:11:50.000Z,75.22
2018-07-07T04:12:49.986Z,75.02
2018-07-07T04:13:49.983Z,75.41
2018-07-07T04:14:49.956Z,74.65
2018-07-07T04:15:49.942Z,74.74
2018-07-07T04:16:50.027Z,75.22
2018-07-07T04:17:49.913Z,74.74
2018-07-07T04:18:49.895Z,74.65
2018-07-07T04:19:49.880Z,74.84
2018-07-07T04:20:49.866Z,75.12
2018-07-07T04:21:49.856Z,75.41
2018-07-07T04:22:49.840Z,75.22
2018-07-07T04:23:49.834Z,74.74
2018-07-07T04:24:49.811Z,75.26
2018-07-07T04:25:49.796Z,75.16
2018-07-07T04:26:49.778Z,74.97
2018-07-07T04:27:49.763Z,75.16
2018-07-07T04:28:49.747Z,75.07
2018-07-07T04:29:49.731Z,74.65
2018-07-07T04:30:49.718Z,74.68
2018-07-07T04:31:49.701Z,74.58
2018-07-07T04:32:49.688Z,74.68
2018-07-07T04:33:49.676Z,74.77
2018-07-07T04:34:49.656Z,75.35
2018-07-07T04:35:49.693Z,75.35
2018-07-07T04:36:49.628Z,75.60
2018-07-07T04:37:49.615Z,76.18
2018-07-07T04:38:49.604Z,76.46
2018-07-07T04:39:49.580Z,76.65
2018-07-07T04:40:49.567Z,76.37
2018-07-07T04:41:49.556Z,77.13
2018-07-07T04:42:49.536Z,77.13
2018-07-07T04:43:49.526Z,76.94
2018-07-07T04:44:49.508Z,77.42
2018-07-07T04:45:49.531Z,77.42
2018-07-07T04:46:49.477Z,77.51
2018-07-07T04:47:49.462Z,77.42
2018-07-07T04:48:49.445Z,77.51
2018-07-07T04:49:49.431Z,77.94
2018-07-07T04:50:49.416Z,77.90
2018-07-07T04:51:49.520Z,77.90
2018-07-07T04:52:49.386Z,78.09
2018-07-07T04:53:49.369Z,78.09
2018-07-07T04:54:49.356Z,77.94
2018-07-07T04:55:49.343Z,78.51
2018-07-07T04:56:49.326Z,78.51
2018-07-07T04:57:49.316Z,78.51
2018-07-07T04:58:49.295Z,78.13
2018-07-07T04:59:49.432Z,78.03
2018-07-07T05:00:49.266Z,78.42
2018-07-07T05:01:49.255Z,78.03
2018-07-07T05:02:49.242Z,78.70
2018-07-07T05:03:49.225Z,79.75
2018-07-07T05:04:49.208Z,79.57
2018-07-07T05:05:49.198Z,79.95
2018-07-07T05:06:49.179Z,80.81
2018-07-07T05:07:49.161Z,80.90
2018-07-07T05:08:49.143Z,81.00
2018-07-07T05:09:49.130Z,81.10
2018-07-07T05:10:49.131Z,80.90
2018-07-07T05:11:49.106Z,81.77
2018-07-07T05:12:49.090Z,81.00
2018-07-07T05:13:49.076Z,80.90
2018-07-07T05:14:49.054Z,81.10
2018-07-07T05:15:49.047Z,81.00
2018-07-07T05:16:49.028Z,81.10
2018-07-07T05:17:49.009Z,81.38
2018-07-07T05:18:49.046Z,80.81
2018-07-07T05:19:48.978Z,80.94
2018-07-07T05:20:48.962Z,80.56
2018-07-07T05:21:48.954Z,81.04
2018-07-07T05:22:48.935Z,80.76
2018-07-07T05:23:48.922Z,81.20
2018-07-07T05:24:48.907Z,81.52
2018-07-07T05:25:48.889Z,81.96
2018-07-07T05:26:48.875Z,82.06
2018-07-07T05:27:48.859Z,82.43
2018-07-07T05:28:48.843Z,82.92
2018-07-07T05:29:48.826Z,82.92
2018-07-07T05:30:48.813Z,82.24
2018-07-07T05:31:48.860Z,82.63
2018-07-07T05:32:48.786Z,81.81
2018-07-07T05:33:48.771Z,81.71
2018-07-07T05:34:48.756Z,81.81
2018-07-07T05:35:48.792Z,81.62
2018-07-07T05:36:48.724Z,81.33
2018-07-07T05:37:48.713Z,81.62
2018-07-07T05:38:48.702Z,81.13
2018-07-07T05:39:48.679Z,80.94
2018-07-07T05:40:48.663Z,81.52
2018-07-07T05:41:48.654Z,81.33
2018-07-07T05:42:48.635Z,81.33
2018-07-07T05:43:48.625Z,81.52
2018-07-07T05:44:48.605Z,81.62
2018-07-07T05:45:48.595Z,81.04
2018-07-07T05:46:48.578Z,80.85
2018-07-07T05:47:48.560Z,80.76
2018-07-07T05:48:48.541Z,80.85
2018-07-07T05:49:48.536Z,80.66
2018-07-07T05:50:48.518Z,81.23
2018-07-07T05:51:48.503Z,80.18
2018-07-07T05:52:48.483Z,80.85
2018-07-07T05:53:48.471Z,80.18
2018-07-07T05:54:48.455Z,79.99
2018-07-07T05:55:48.442Z,79.93
2018-07-07T05:56:48.426Z,79.80
2018-07-07T05:57:48.408Z,79.70
2018-07-07T05:58:48.394Z,80.56
2018-07-07T05:59:48.385Z,79.89
2018-07-07T06:00:48.367Z,80.41
2018-07-07T06:01:48.400Z,80.60
2018-07-07T06:02:48.338Z,80.76
2018-07-07T06:03:48.320Z,80.60
2018-07-07T06:04:48.304Z,80.12
2018-07-07T06:05:48.290Z,79.74
2018-07-07T06:06:48.274Z,79.83
2018-07-07T06:07:48.257Z,79.64
2018-07-07T06:08:48.243Z,79.16
2018-07-07T06:09:48.235Z,79.36
2018-07-07T06:10:48.215Z,79.36
2018-07-07T06:11:48.202Z,79.36
2018-07-07T06:12:48.182Z,79.64
2018-07-07T06:13:48.171Z,79.64
2018-07-07T06:14:48.154Z,79.45
2018-07-07T06:15:48.138Z,79.45
2018-07-07T06:16:48.125Z,79.36
2018-07-07T06:17:48.113Z,79.55
2018-07-07T06:18:48.096Z,79.26
2018-07-07T06:19:48.086Z,78.78
2018-07-07T06:20:48.124Z,78.78
2018-07-07T06:21:48.051Z,78.49
2018-07-07T06:22:48.052Z,77.82
2018-07-07T06:23:48.074Z,77.63
2018-07-07T06:24:48.036Z,77.92
2018-07-07T06:25:47.991Z,77.73
2018-07-07T06:26:48.069Z,77.82
2018-07-07T06:27:47.967Z,78.11
2018-07-07T06:28:47.948Z,78.59
2018-07-07T06:29:47.933Z,78.40
2018-07-07T06:30:47.919Z,79.16
2018-07-07T06:31:47.901Z,79.55
2018-07-07T06:32:47.885Z,79.55
2018-07-07T06:33:47.883Z,78.34
2018-07-07T06:34:47.872Z,78.15
2018-07-07T06:35:47.841Z,78.25
2018-07-07T06:36:47.830Z,77.95
2018-07-07T06:37:47.817Z,78.15
2018-07-07T06:38:47.800Z,77.95
2018-07-07T06:39:47.786Z,77.48
2018-07-07T06:40:47.771Z,77.58
2018-07-07T06:41:47.758Z,77.29
2018-07-07T06:42:47.748Z,77.38
2018-07-07T06:43:47.790Z,76.90
2018-07-07T06:44:47.719Z,76.42
2018-07-07T06:45:47.703Z,76.42
2018-07-07T06:46:47.682Z,76.27
2018-07-07T06:47:47.720Z,76.17
2018-07-07T06:48:47.646Z,75.89
2018-07-07T06:49:47.636Z,75.50
2018-07-07T06:50:47.626Z,75.50
2018-07-07T06:51:47.610Z,75.02
2018-07-07T06:52:47.595Z,74.26
2018-07-07T06:53:47.642Z,74.35
2018-07-07T06:54:47.559Z,74.64
2018-07-07T06:55:47.552Z,74.44
2018-07-07T06:56:47.536Z,74.44
2018-07-07T06:57:47.517Z,74.35
2018-07-07T06:58:47.505Z,74.06
2018-07-07T06:59:47.541Z,73.81
2018-07-07T07:00:47.480Z,73.24
2018-07-07T07:01:47.464Z,73.49
2018-07-07T07:02:47.448Z,73.20
2018-07-07T07:03:47.465Z,72.91
2018-07-07T07:04:47.417Z,73.00
2018-07-07T07:05:47.403Z,73.33
2018-07-07T07:06:47.389Z,73.24
2018-07-07T07:07:47.371Z,73.52
2018-07-07T07:08:47.371Z,73.14
2018-07-07T07:09:47.346Z,72.08
2018-07-07T07:10:47.335Z,73.14
2018-07-07T07:11:47.332Z,72.56
2018-07-07T07:12:47.301Z,72.56
2018-07-07T07:13:47.296Z,71.98
2018-07-07T07:14:47.274Z,72.37
2018-07-07T07:15:47.253Z,72.18
2018-07-07T07:16:47.243Z,71.89
2018-07-07T07:17:47.224Z,71.89
2018-07-07T07:18:47.215Z,72.18
2018-07-07T07:19:47.286Z,70.97
2018-07-07T07:20:47.186Z,71.16
2018-07-07T07:21:47.172Z,71.35
2018-07-07T07:22:47.259Z,71.25
2018-07-07T07:23:47.152Z,70.97
2018-07-07T07:24:47.175Z,70.29
2018-07-07T07:25:47.114Z,70.10
2018-07-07T07:26:47.100Z,70.10
2018-07-07T07:27:47.085Z,69.75
2018-07-07T07:28:47.076Z,69.56
2018-07-07T07:29:47.053Z,68.70
2018-07-07T07:30:47.041Z,68.79
2018-07-07T07:31:47.025Z,68.89
2018-07-07T07:32:47.010Z,68.79
2018-07-07T07:33:46.997Z,68.44
2018-07-07T07:34:46.985Z,67.68
2018-07-07T07:35:46.969Z,67.38
2018-07-07T07:36:46.972Z,67.00
2018-07-07T07:37:46.949Z,66.14
2018-07-07T07:38:46.933Z,65.27
2018-07-07T07:39:46.930Z,64.22
2018-07-07T07:40:46.904Z,64.60
2018-07-07T07:41:46.888Z,64.79
2018-07-07T07:42:46.875Z,64.79
2018-07-07T07:43:46.864Z,64.79
2018-07-07T07:44:46.851Z,65.27
2018-07-07T07:45:46.829Z,63.92
2018-07-07T07:46:46.833Z,64.31
2018-07-07T07:47:46.800Z,62.96
2018-07-07T07:48:46.789Z,64.18
2018-07-07T07:49:46.827Z,64.37
2018-07-07T07:50:46.760Z,64.60
2018-07-07T07:51:46.745Z,64.60
2018-07-07T07:52:46.760Z,63.73
2018-07-07T07:53:46.725Z,63.73
2018-07-07T07:54:46.714Z,63.73
2018-07-07T07:55:46.696Z,64.40
2018-07-07T07:56:46.685Z,64.60
2018-07-07T07:57:46.669Z,63.57
2018-07-07T07:58:46.656Z,63.28
2018-07-07T07:59:46.637Z,62.90
2018-07-07T08:00:46.625Z,62.32
2018-07-07T08:01:46.609Z,63.09
2018-07-07T08:02:46.695Z,62.74
2018-07-07T08:03:46.581Z,61.97
2018-07-07T08:04:46.627Z,61.58
2018-07-07T08:05:46.555Z,61.77
2018-07-07T08:06:46.542Z,62.74
2018-07-07T08:07:46.530Z,62.54
2018-07-07T08:08:46.519Z,61.87
2018-07-07T08:09:46.517Z,61.80
2018-07-07T08:10:46.489Z,60.84
2018-07-07T08:11:46.481Z,60.65
2018-07-07T08:12:46.475Z,60.27
2018-07-07T08:13:46.451Z,60.58
2018-07-07T08:14:46.446Z,59.78
2018-07-07T08:15:46.432Z,59.88
2018-07-07T08:16:46.415Z,58.27
2018-07-07T08:17:46.395Z,57.09
2018-07-07T08:18:46.383Z,58.82
2018-07-07T08:19:46.373Z,58.34
2018-07-07T08:20:46.356Z,56.70
2018-07-07T08:21:46.343Z,56.77
2018-07-07T08:22:46.334Z,57.54
2018-07-07T08:23:46.322Z,57.83
2018-07-07T08:24:46.301Z,57.83
2018-07-07T08:25:46.294Z,57.92
2018-07-07T08:26:46.330Z,57.54
2018-07-07T08:27:46.263Z,58.02
2018-07-07T08:28:46.251Z,57.25
2018-07-07T08:29:46.238Z,58.34
2018-07-07T08:30:46.226Z,56.90
2018-07-07T08:31:46.216Z,55.83
2018-07-07T08:32:46.211Z,54.80
2018-07-07T08:33:46.194Z,55.48
2018-07-07T08:34:46.178Z,56.44
2018-07-07T08:35:46.171Z,56.35
2018-07-07T08:36:46.151Z,55.87
2018-07-07T08:37:46.137Z,55.51
2018-07-07T08:38:46.125Z,55.12
2018-07-07T08:39:46.116Z,55.31
2018-07-07T08:40:46.097Z,55.38
2018-07-07T08:41:46.137Z,55.57
2018-07-07T08:42:46.080Z,55.77
2018-07-07T08:43:46.056Z,54.32
2018-07-07T08:44:46.046Z,55.38
2018-07-07T08:45:46.083Z,55.48
2018-07-07T08:46:46.030Z,54.71
2018-07-07T08:47:46.018Z,55.48
2018-07-07T08:48:45.997Z,54.64
2018-07-07T08:49:45.987Z,54.35
2018-07-07T08:50:45.970Z,54.54
2018-07-07T08:51:45.954Z,53.00
2018-07-07T08:52:45.943Z,53.00
2018-07-07T08:53:45.931Z,53.39
2018-07-07T08:54:45.928Z,53.84
2018-07-07T08:55:45.906Z,53.84
2018-07-07T08:56:45.895Z,54.42
2018-07-07T08:57:45.881Z,55.09
2018-07-07T08:58:45.876Z,55.48
2018-07-07T08:59:45.853Z,55.77
2018-07-07T09:00:45.843Z,55.19
2018-07-07T09:01:45.845Z,54.71
2018-07-07T09:02:45.822Z,55.31
2018-07-07T09:03:45.805Z,54.35
2018-07-07T09:04:45.792Z,53.58
2018-07-07T09:05:45.777Z,54.06
2018-07-07T09:06:45.768Z,52.83
2018-07-07T09:07:45.776Z,52.83
2018-07-07T09:08:45.740Z,52.06
2018-07-07T09:09:45.732Z,52.45
2018-07-07T09:10:45.719Z,52.25
2018-07-07T09:11:45.705Z,51.97
2018-07-07T09:12:45.704Z,51.97
2018-07-07T09:13:45.685Z,51.00
2018-07-07T09:14:45.673Z,52.25
2018-07-07T09:15:45.662Z,52.19
2018-07-07T09:16:45.655Z,51.12
2018-07-07T09:17:45.639Z,49.87
2018-07-07T09:18:45.627Z,49.68
2018-07-07T09:19:45.607Z,50.35
2018-07-07T09:20:45.597Z,50.06
2018-07-07T09:21:45.591Z,50.81
2018-07-07T09:22:45.600Z,50.32
2018-07-07T09:23:45.559Z,51.10
2018-07-07T09:24:45.550Z,50.90
2018-07-07T09:25:45.534Z,50.71
2018-07-07T09:26:45.521Z,51.00
2018-07-07T09:27:45.505Z,51.48
2018-07-07T09:28:45.497Z,51.00
2018-07-07T09:29:45.482Z,50.52
2018-07-07T09:30:45.522Z,50.52
2018-07-07T09:31:45.464Z,51.29
2018-07-07T09:32:45.448Z,50.81
2018-07-07T09:33:45.437Z,51.10
2018-07-07T09:34:45.435Z,50.74
2018-07-07T09:35:45.409Z,50.54
2018-07-07T09:36:45.396Z,49.39
2018-07-07T09:37:45.386Z,49.77
2018-07-07T09:38:45.382Z,49.55
2018-07-07T09:39:45.362Z,50.81
2018-07-07T09:40:45.352Z,51.10
2018-07-07T09:41:45.348Z,51.48
2018-07-07T09:42:45.332Z,50.52
2018-07-07T09:43:45.323Z,50.42
2018-07-07T09:44:45.300Z,51.41
2018-07-07T09:45:45.288Z,50.74
2018-07-07T09:46:45.278Z,49.77
2018-07-07T09:47:45.262Z,50.84
2018-07-07T09:48:45.253Z,50.45
2018-07-07T09:49:45.239Z,51.03
2018-07-07T09:50:45.227Z,50.45
2018-07-07T09:51:45.210Z,50.35
2018-07-07T09:52:45.204Z,50.64
2018-07-07T09:53:45.196Z,51.44
2018-07-07T09:54:45.175Z,50.47
2018-07-07T09:55:45.168Z,50.28
2018-07-07T09:56:45.164Z,50.67
2018-07-07T09:57:45.139Z,49.60
2018-07-07T09:58:45.125Z,49.12
2018-07-07T09:59:45.114Z,49.87
2018-07-07T10:00:45.107Z,50.18
2018-07-07T10:01:45.132Z,50.67
2018-07-07T10:02:45.094Z,50.69
2018-07-07T10:03:45.072Z,49.82
2018-07-07T10:04:45.063Z,50.01
2018-07-07T10:05:45.116Z,49.53
2018-07-07T10:06:45.050Z,48.86
2018-07-07T10:07:45.098Z,49.34
2018-07-07T10:08:45.010Z,49.53
2018-07-07T10:09:44.996Z,49.41
2018-07-07T10:10:44.985Z,49.51
2018-07-07T10:11:44.975Z,50.38
2018-07-07T10:12:44.965Z,50.38
2018-07-07T10:13:44.945Z,49.41
2018-07-07T10:14:44.938Z,49.24
2018-07-07T10:15:44.922Z,49.02
2018-07-07T10:16:44.925Z,49.24
2018-07-07T10:17:44.904Z,48.28
2018-07-07T10:18:44.893Z,49.07
2018-07-07T10:19:44.879Z,48.39
2018-07-07T10:20:44.869Z,47.33
2018-07-07T10:21:44.909Z,48.11
2018-07-07T10:22:44.841Z,47.33
2018-07-07T10:23:44.830Z,47.14
2018-07-07T10:24:44.823Z,47.05
2018-07-07T10:25:44.810Z,47.14
2018-07-07T10:26:44.794Z,47.14
2018-07-07T10:27:44.784Z,47.05
2018-07-07T10:28:44.768Z,47.22
2018-07-07T10:29:44.762Z,47.02
2018-07-07T10:30:44.751Z,47.12
2018-07-07T10:31:44.732Z,48.35
2018-07-07T10:32:44.722Z,48.47
2018-07-07T10:33:44.723Z,48.11
2018-07-07T10:34:44.695Z,46.92
2018-07-07T10:35:44.685Z,47.60
2018-07-07T10:36:44.677Z,47.99
2018-07-07T10:37:44.736Z,48.11
2018-07-07T10:38:44.648Z,48.97
2018-07-07T10:39:44.643Z,48.42
2018-07-07T10:40:44.640Z,47.07
2018-07-07T10:41:44.620Z,46.68
2018-07-07T10:42:44.604Z,46.30
2018-07-07T10:43:44.594Z,47.16
2018-07-07T10:44:44.628Z,46.17
2018-07-07T10:45:44.642Z,45.89
2018-07-07T10:46:44.562Z,46.85
2018-07-07T10:47:44.556Z,46.27
2018-07-07T10:48:44.538Z,45.72
2018-07-07T10:49:44.533Z,45.91
2018-07-07T10:50:44.513Z,46.20
2018-07-07T10:51:44.508Z,45.42
2018-07-07T10:52:44.489Z,45.52
2018-07-07T10:53:44.477Z,45.33
2018-07-07T10:54:44.465Z,44.75
2018-07-07T10:55:44.453Z,45.91
2018-07-07T10:56:44.445Z,45.25
2018-07-07T10:57:44.438Z,45.35
2018-07-07T10:58:44.433Z,44.67
2018-07-07T10:59:44.414Z,44.84
2018-07-07T11:00:44.399Z,44.87
2018-07-07T11:01:44.389Z,44.67
2018-07-07T11:02:44.376Z,44.50
2018-07-07T11:03:44.366Z,43.44
2018-07-07T11:04:44.358Z,43.41
2018-07-07T11:05:44.346Z,44.19
2018-07-07T11:06:44.331Z,44.29
2018-07-07T11:07:44.318Z,44.36
2018-07-07T11:08:44.310Z,44.26
2018-07-07T11:09:44.296Z,44.17
2018-07-07T11:10:44.287Z,45.25
2018-07-07T11:11:44.299Z,43.80
2018-07-07T11:12:44.262Z,43.61
2018-07-07T11:13:44.262Z,43.24
2018-07-07T11:14:44.259Z,43.03
2018-07-07T11:15:44.231Z,44.50
2018-07-07T11:16:44.225Z,44.60
2018-07-07T11:17:44.336Z,43.51
2018-07-07T11:18:44.201Z,43.30
2018-07-07T11:19:44.184Z,44.07
2018-07-07T11:20:44.183Z,44.26
2018-07-07T11:21:44.166Z,44.36
2018-07-07T11:22:44.168Z,44.36
2018-07-07T11:23:44.146Z,43.40
2018-07-07T11:24:44.133Z,43.49
2018-07-07T11:25:44.126Z,43.49
2018-07-07T11:26:44.110Z,43.51
2018-07-07T11:27:44.096Z,43.71
2018-07-07T11:28:44.085Z,42.55
2018-07-07T11:29:44.129Z,42.55
2018-07-07T11:30:44.063Z,43.34
2018-07-07T11:31:44.061Z,44.21
2018-07-07T11:32:44.041Z,43.73
2018-07-07T11:33:44.034Z,42.37
2018-07-07T11:34:44.020Z,42.45
2018-07-07T11:35:44.013Z,42.83
2018-07-07T11:36:44.250Z,43.51
2018-07-07T11:37:43.988Z,43.44
2018-07-07T11:38:43.996Z,42.83
2018-07-07T11:39:43.965Z,44.50
2018-07-07T11:40:43.955Z,44.40
2018-07-07T11:41:43.941Z,43.24
2018-07-07T11:42:43.937Z,43.44
2018-07-07T11:43:43.917Z,43.23
2018-07-07T11:44:43.908Z,43.34
2018-07-07T11:45:43.904Z,43.82
2018-07-07T11:46:43.888Z,44.12
2018-07-07T11:47:43.889Z,44.19
2018-07-07T11:48:43.872Z,44.19
2018-07-07T11:49:43.853Z,43.99
2018-07-07T11:50:43.842Z,44.17
2018-07-07T11:51:43.829Z,44.46
2018-07-07T11:52:43.821Z,44.56
2018-07-07T11:53:43.810Z,44.46
2018-07-07T11:54:43.796Z,45.52
2018-07-07T11:55:43.792Z,45.93
2018-07-07T11:56:43.775Z,46.15
2018-07-07T11:57:43.824Z,44.21
2018-07-07T11:58:43.760Z,43.54
2018-07-07T11:59:43.742Z,44.12
2018-07-07T12:00:43.738Z,44.02
2018-07-07T12:01:43.719Z,44.31
2018-07-07T12:02:43.710Z,43.24
2018-07-07T12:03:43.698Z,44.53
2018-07-07T12:04:43.862Z,44.53
2018-07-07T12:05:43.676Z,44.23
2018-07-07T12:06:43.666Z,43.07
2018-07-07T12:07:43.655Z,43.24
2018-07-07T12:08:43.656Z,43.71
2018-07-07T12:09:43.635Z,44.19
2018-07-07T12:10:43.622Z,45.45
2018-07-07T12:11:43.685Z,44.60
2018-07-07T12:12:43.600Z,44.04
2018-07-07T12:13:43.677Z,43.54
2018-07-07T12:14:43.578Z,44.21
2018-07-07T12:15:43.578Z,43.37
2018-07-07T12:16:43.554Z,43.34
2018-07-07T12:17:43.543Z,43.17
2018-07-07T12:18:43.545Z,42.66
2018-07-07T12:19:43.529Z,43.63
2018-07-07T12:20:43.513Z,44.13
2018-07-07T12:21:43.506Z,43.55
2018-07-07T12:22:43.492Z,43.75
2018-07-07T12:23:43.476Z,44.23
2018-07-07T12:24:43.531Z,43.75
2018-07-07T12:25:43.456Z,43.95
2018-07-07T12:26:43.447Z,43.55
2018-07-07T12:27:43.436Z,44.72
2018-07-07T12:28:43.423Z,43.27
2018-07-07T12:29:43.431Z,45.01
2018-07-07T12:30:43.403Z,43.27
2018-07-07T12:31:43.398Z,44.02
2018-07-07T12:32:43.377Z,45.49
2018-07-07T12:33:43.372Z,44.72
2018-07-07T12:34:43.366Z,44.13
2018-07-07T12:35:43.346Z,43.75
2018-07-07T12:36:43.452Z,43.44
2018-07-07T12:37:43.422Z,44.21
2018-07-07T12:38:43.338Z,45.37
2018-07-07T12:39:43.303Z,45.78
2018-07-07T12:40:43.395Z,44.84
2018-07-07T12:41:43.294Z,43.48
2018-07-07T12:42:43.271Z,43.27
2018-07-07T12:43:43.262Z,44.33
2018-07-07T12:44:43.304Z,44.53
2018-07-07T12:45:43.241Z,44.06
2018-07-07T12:46:43.231Z,44.26
2018-07-07T12:47:43.226Z,42.90
2018-07-07T12:48:43.207Z,44.06
2018-07-07T12:49:43.197Z,43.85
2018-07-07T12:50:43.187Z,44.81
2018-07-07T12:51:43.178Z,45.49
2018-07-07T12:52:43.171Z,44.43